IZ1TNJ Torino IT current weather conditions

sailwx.info

Wind from 293 at 1 knots gusting 3

Last reported at 2020-Feb-18 23:50 UTC.
Time now 2020-Feb-19 00:47 UTC

Location: N 45°03' E 007°20'.
View on Google Maps.

See reports from other nearby stations

  
Tides and Currents Weather Stations Pressure Air Temp Water Temp Dewpoint Dewpoint Depression Visibility Wind Speed Wind Dir Waves Ship Positions
date/time (UTC)wind fromknots sea level pressurealtimeterstation pressurevisibilityair tempwater tempwave heightnotes
2020-Feb-18 23:50 293 1 gusting 3
2020-Feb-18 23:40 270 3 gusting 6
2020-Feb-18 23:30 270 3 gusting 6
2020-Feb-18 23:20 270 3 gusting 6
2020-Feb-18 23:10 270 5 gusting 8
2020-Feb-18 23:00 270 5 gusting 8
2020-Feb-18 22:50 270 5 gusting 7
2020-Feb-18 22:40 270 5 gusting 6
2020-Feb-18 22:30 315 1 gusting 3
2020-Feb-18 22:20 270 4 gusting 7
2020-Feb-18 22:10 270 3 gusting 6
2020-Feb-18 22:00 270 2 gusting 6
2020-Feb-18 21:50 270 5 gusting 7
2020-Feb-18 21:40 270 3 gusting 6
2020-Feb-18 21:30 270 4 gusting 6
2020-Feb-18 21:10 270 5 gusting 6
2020-Feb-18 21:00 270 4 gusting 6
2020-Feb-18 20:50 270 3 gusting 6
2020-Feb-18 20:40 270 3 gusting 6
2020-Feb-18 20:30 270 5 gusting 6
2020-Feb-18 20:20 270 3 gusting 6
2020-Feb-18 20:10 270 4 gusting 6
2020-Feb-18 20:00 270 3 gusting 6
2020-Feb-18 19:50 270 4 gusting 6
2020-Feb-18 19:40 270 2 gusting 6
2020-Feb-18 19:30 270 2 gusting 5
2020-Feb-18 19:20 293 1 gusting 3
2020-Feb-18 19:10 270 3 gusting 6
2020-Feb-18 19:00 270 1 gusting 5
2020-Feb-18 18:50 270 2 gusting 5
2020-Feb-18 18:40 248 1 gusting 2
2020-Feb-18 18:35 270 2 gusting 3
2020-Feb-18 18:20 270 2 gusting 5
2020-Feb-18 18:10 270 3 gusting 6
2020-Feb-18 18:00 270 3 gusting 6
2020-Feb-18 17:50 270 2 gusting 6
2020-Feb-18 17:40 293 0 gusting 2
2020-Feb-18 17:30 293 2 gusting 2
2020-Feb-18 17:20 293 1 gusting 2
2020-Feb-18 17:10 225 0 gusting 2
2020-Feb-18 17:00 158 0 gusting 3
2020-Feb-18 16:50 158 0 gusting 0
2020-Feb-18 16:40
2020-Feb-18 16:30
2020-Feb-18 16:20
2020-Feb-18 16:10 158 0 gusting 3 11.7
2020-Feb-18 16:00 158 0 gusting 3 12.2
2020-Feb-18 15:50 135 2 gusting 7 12.2
2020-Feb-18 15:40 090 2 gusting 3 12.2
2020-Feb-18 15:30 090 3 gusting 6 12.8
2020-Feb-18 15:20 090 2 gusting 5 12.8
2020-Feb-18 15:10 113 1 gusting 6 12.8
2020-Feb-18 15:00 113 3 gusting 8 12.8
2020-Feb-18 14:50 090 3 gusting 6 13.3
2020-Feb-18 14:40 113 3 gusting 7 13.3
2020-Feb-18 14:30 113 3 gusting 8 13.3
2020-Feb-18 14:20 113 2 gusting 6 13.3
2020-Feb-18 14:10 090 4 gusting 8 13.3
2020-Feb-18 14:00 090 4 gusting 9 13.3
2020-Feb-18 13:50 158 4 gusting 8 13.3
2020-Feb-18 13:40 158 4 gusting 9 13.3
2020-Feb-18 13:30 113 4 gusting 9 13.3
2020-Feb-18 13:20 113 4 gusting 9 13.3
2020-Feb-18 13:10 158 4 gusting 11 13.3
2020-Feb-18 13:00 090 5 gusting 8 13.3
2020-Feb-18 12:50 090 5 gusting 7 13.3
2020-Feb-18 12:40 090 5 gusting 10 13.3
2020-Feb-18 12:30 090 4 gusting 10 13.3
2020-Feb-18 12:20 090 6 gusting 10 13.3
2020-Feb-18 12:10 113 4 gusting 7 13.3
2020-Feb-18 12:00 113 3 gusting 7 13.3
2020-Feb-18 11:50 113 4 gusting 7 13.3
2020-Feb-18 11:40 090 6 gusting 9 13.3
2020-Feb-18 11:30 113 5 gusting 9 13.9
2020-Feb-18 11:20 113 2 gusting 7 13.9
2020-Feb-18 11:10 180 3 gusting 7 13.3
2020-Feb-18 11:00 113 5 gusting 9 13.3
2020-Feb-18 10:50 113 3 gusting 8 13.3
2020-Feb-18 10:40 090 2 gusting 5 13.3
2020-Feb-18 10:30 090 1 gusting 5 13.3
2020-Feb-18 10:20 090 2 gusting 5 12.8
2020-Feb-18 10:10 090 2 gusting 6 12.8
2020-Feb-18 10:00 113 1 gusting 6 12.2
2020-Feb-18 09:50 113 1 gusting 5 12.2
2020-Feb-18 09:40 090 2 gusting 6 11.7
2020-Feb-18 09:30 113 1 gusting 5 11.7
2020-Feb-18 09:20 090 0 gusting 2
2020-Feb-18 09:10 135 0 gusting 3
2020-Feb-18 09:00 158 0 gusting 3
2020-Feb-18 08:50 203 0 gusting 2
2020-Feb-18 08:40 158 0 gusting 1
2020-Feb-18 08:30 203 0 gusting 2
2020-Feb-18 08:20 248 0 gusting 2
2020-Feb-18 08:10 248 1 gusting 3
2020-Feb-18 08:00 270 0 gusting 1
2020-Feb-18 07:50 270 1 gusting 2
2020-Feb-18 07:40 248 2 gusting 4
2020-Feb-18 07:30 270 2 gusting 5
2020-Feb-18 07:20 270 1 gusting 6
2020-Feb-18 07:10 248 1 gusting 6
2020-Feb-18 07:00 315 2 gusting 5
2020-Feb-18 06:50 338 2 gusting 4
2020-Feb-18 06:40 293 1 gusting 2
2020-Feb-18 06:30 338 2 gusting 4
2020-Feb-18 06:20 315 1 gusting 3
2020-Feb-18 06:10 315 0 gusting 4
2020-Feb-18 06:00 293 1 gusting 3
2020-Feb-18 05:50 270 1 gusting 3
2020-Feb-18 05:40 180 1 gusting 3
2020-Feb-18 05:30 315 2 gusting 4
2020-Feb-18 05:20 270 1 gusting 6
2020-Feb-18 05:10 315 1 gusting 4
2020-Feb-18 05:00 338 1 gusting 4
2020-Feb-18 04:50 338 0 gusting 4
2020-Feb-18 04:40 315 1 gusting 5
2020-Feb-18 04:30 315 1 gusting 6
2020-Feb-18 04:20 315 2 gusting 4
2020-Feb-18 04:10 315 1 gusting 3
2020-Feb-18 04:00
2020-Feb-18 03:50 270 1 gusting 3
2020-Feb-18 03:40 293 2 gusting 5
2020-Feb-18 03:30 338 1 gusting 2
2020-Feb-18 03:20 338 1 gusting 2
2020-Feb-18 03:10 315 2 gusting 3
2020-Feb-18 03:00 293 1 gusting 3
2020-Feb-18 02:50 270 2 gusting 6
2020-Feb-18 02:40 293 1 gusting 3
2020-Feb-18 02:30 315 1 gusting 1
2020-Feb-18 02:20 315 1 gusting 2
2020-Feb-18 02:10 315 0 gusting 2
2020-Feb-18 02:00 315 1 gusting 3
2020-Feb-18 01:50 270 2 gusting 6
2020-Feb-18 01:40 270 3 gusting 5
2020-Feb-18 01:30 270 2 gusting 6
2020-Feb-18 01:20 270 4 gusting 6
2020-Feb-18 01:10 270 3 gusting 6
2020-Feb-18 01:00 270 3 gusting 6
2020-Feb-18 00:50 270 1 gusting 3
2020-Feb-18 00:40 293 2 gusting 5
2020-Feb-18 00:30 270 1 gusting 3
2020-Feb-18 00:20 293 1 gusting 3
2020-Feb-18 00:15 293 0 gusting 2
2020-Feb-18 00:05 293 1 gusting 2
2020-Feb-17 23:55 293 0 gusting 2
2020-Feb-17 23:45 293 1 gusting 3
2020-Feb-17 23:35 270 1 gusting 2
2020-Feb-17 23:25 270 1 gusting 2
2020-Feb-17 23:15 270 1 gusting 2
2020-Feb-17 23:05 293 1 gusting 2
2020-Feb-17 22:55 270 1 gusting 3
2020-Feb-17 22:45 270 2 gusting 5
2020-Feb-17 22:35 270 2 gusting 3
2020-Feb-17 22:25 293 1 gusting 3
2020-Feb-17 22:15 270 2 gusting 6
2020-Feb-17 22:05 270 1 gusting 5
2020-Feb-17 21:55
2020-Feb-17 21:45 270 1 gusting 5
2020-Feb-17 21:35 270 1 gusting 5
2020-Feb-17 21:25 293 1 gusting 2
2020-Feb-17 21:15 315 0 gusting 3
2020-Feb-17 21:05 270 2 gusting 5
2020-Feb-17 20:55 270 1 gusting 3
2020-Feb-17 20:45
2020-Feb-17 20:35 270 0 gusting 1
2020-Feb-17 20:25 270 0 gusting 1
2020-Feb-17 20:15 270 1 gusting 2
2020-Feb-17 20:05
2020-Feb-17 19:55
2020-Feb-17 19:45 270 0 gusting 1
2020-Feb-17 19:35 270 1 gusting 2
2020-Feb-17 19:25 270 1 gusting 5
2020-Feb-17 19:15 270 2 gusting 3
2020-Feb-17 19:05 045 0 gusting 1
2020-Feb-17 18:55 045 0 gusting 1
2020-Feb-17 18:45 045 0 gusting 1
2020-Feb-17 18:35 045 0 gusting 1
2020-Feb-17 18:25 045 1 gusting 2
2020-Feb-17 18:15 045 0 gusting 2
2020-Feb-17 18:05 068 2 gusting 2
2020-Feb-17 18:00 068 1 gusting 2
2020-Feb-17 17:55 090 1 gusting 2
2020-Feb-17 17:45 090 0 gusting 1
2020-Feb-17 17:35 090 0 gusting 1
2020-Feb-17 17:25 090 0 gusting 1
2020-Feb-17 17:15 090 0 gusting 1
2020-Feb-17 17:05 090 0 gusting 1
2020-Feb-17 16:55 090 0 gusting 1
2020-Feb-17 16:45 113 1 gusting 2
2020-Feb-17 16:35
2020-Feb-17 16:25 113 0 gusting 2
2020-Feb-17 16:05 113 1 gusting 3 8.9
2020-Feb-17 15:55 090 1 gusting 3 9.4
2020-Feb-17 15:45 113 1 gusting 5 9.4
2020-Feb-17 15:35 113 2 gusting 5 9.4
2020-Feb-17 15:25 090 1 gusting 5 10.0
2020-Feb-17 15:15 113 2 gusting 6 10.0
2020-Feb-17 15:05 090 2 gusting 6 10.6
2020-Feb-17 14:55 090 2 gusting 6 10.6
2020-Feb-17 14:45 135 0 gusting 3 10.6
2020-Feb-17 14:35 090 1 gusting 5 10.6
2020-Feb-17 14:25 090 1 gusting 6 10.6
2020-Feb-17 14:15 090 0 gusting 2 10.6
2020-Feb-17 14:05 090 2 gusting 5 10.6
2020-Feb-17 13:55 113 1 gusting 6 10.6
2020-Feb-17 13:45 158 3 gusting 6 10.6
2020-Feb-17 13:35 090 2 gusting 6 11.1
2020-Feb-17 13:25 090 4 gusting 7 11.1
2020-Feb-17 13:15 090 2 gusting 6 10.6
2020-Feb-17 13:05 135 2 gusting 6 10.6
2020-Feb-17 12:55 135 1 gusting 4 10.6
2020-Feb-17 12:45 113 3 gusting 7 11.1
2020-Feb-17 12:35 090 3 gusting 8 11.1
2020-Feb-17 12:25 090 2 gusting 6 10.6
2020-Feb-17 12:15 090 1 gusting 5 10.6
2020-Feb-17 12:05 090 1 gusting 4 10.6
2020-Feb-17 11:55 090 2 gusting 6 10.6
2020-Feb-17 11:45 090 1 gusting 5 10.0
2020-Feb-17 11:35 090 2 gusting 6 10.6
2020-Feb-17 11:25 090 2 gusting 5 10.6
2020-Feb-17 11:15 090 3 gusting 6 10.0
2020-Feb-17 11:05 090 1 gusting 6 10.0
2020-Feb-17 10:55 045 1 gusting 3 10.0
2020-Feb-17 10:45 135 2 gusting 6 10.0
2020-Feb-17 10:35 090 3 gusting 7 9.4
2020-Feb-17 10:25 090 3 gusting 6 9.4
2020-Feb-17 10:15 113 2 gusting 6 9.4
2020-Feb-17 10:05 090 3 gusting 6 9.4
2020-Feb-17 09:55 113 1 gusting 5 9.4
2020-Feb-17 09:45 090 2 gusting 5 8.9
2020-Feb-17 09:35 090 1 gusting 5 8.9
2020-Feb-17 09:25 090 1 gusting 3
2020-Feb-17 09:15 090 1 gusting 2
2020-Feb-17 09:05 090 1 gusting 3
2020-Feb-17 08:55 090 1 gusting 3
2020-Feb-17 08:45 248 0 gusting 1
2020-Feb-17 08:35 270 0 gusting 2
2020-Feb-17 08:25 270 0 gusting 1
2020-Feb-17 08:15
2020-Feb-17 08:05 270 0 gusting 1
2020-Feb-17 07:55
2020-Feb-17 07:45 270 0 gusting 1
2020-Feb-17 07:35 270 0 gusting 3
2020-Feb-17 07:25 293 0 gusting 2
2020-Feb-17 07:15 293 1 gusting 2
2020-Feb-17 07:05 293 1 gusting 2
2020-Feb-17 06:55 293 2 gusting 2
2020-Feb-17 06:45 293 2 gusting 3
2020-Feb-17 06:35 293 2 gusting 3
2020-Feb-17 06:25 293 2 gusting 3
2020-Feb-17 06:15 293 2 gusting 3
2020-Feb-17 06:10 293 0 gusting 1
2020-Feb-17 06:05 293 1 gusting 2
2020-Feb-17 05:55 293 1 gusting 2
2020-Feb-17 05:45 293 2 gusting 2
2020-Feb-17 05:35 293 1 gusting 2
2020-Feb-17 05:25 293 2 gusting 3
2020-Feb-17 05:15 293 1 gusting 2
2020-Feb-17 05:05 293 1 gusting 2
2020-Feb-17 04:55 293 1 gusting 2
2020-Feb-17 04:45 293 1 gusting 2
2020-Feb-17 04:35 293 1 gusting 2
2020-Feb-17 04:25 293 1 gusting 3
2020-Feb-17 04:15 293 1 gusting 2
2020-Feb-17 04:05 293 1 gusting 2
2020-Feb-17 03:55 293 1 gusting 2
2020-Feb-17 03:45 293 2 gusting 3
2020-Feb-17 03:35 270 1 gusting 5
2020-Feb-17 03:25 293 2 gusting 5
2020-Feb-17 03:15 293 2 gusting 3
2020-Feb-17 03:05 293 2 gusting 3
2020-Feb-17 02:55 293 1 gusting 2
2020-Feb-17 02:45 293 1 gusting 2
2020-Feb-17 02:35 293 1 gusting 2
2020-Feb-17 02:25 293 1 gusting 2
2020-Feb-17 02:15 293 1 gusting 2
2020-Feb-17 02:05 293 1 gusting 2
2020-Feb-17 01:55 293 1 gusting 2
2020-Feb-17 01:45 293 1 gusting 2
2020-Feb-17 01:35 293 1 gusting 2
2020-Feb-17 01:25 293 1 gusting 2
2020-Feb-17 01:15 293 1 gusting 2
2020-Feb-17 01:05 293 0 gusting 2
2020-Feb-17 00:55 293 1 gusting 2
2020-Feb-17 00:45 293 1 gusting 2
2020-Feb-17 00:35 293 1 gusting 2
2020-Feb-17 00:25 293 1 gusting 2
2020-Feb-17 00:15 293 1 gusting 2
2020-Feb-17 00:05 293 0 gusting 1